Time;durP1;ratioP1;P1;durP2;ratioP2;P2;SDS_P1;SDS_P2;PMS_P1;PMS_P2;Temp;Humidity;BMP_temperature;BMP_pressure;BME280_temperature;BME280_humidity;BME280_pressure;Samples;Min_cycle;Max_cycle;Signal;HPM_P1;HPM_P2
2022/08/31 00:05:16;;;;;;;4.93;3.93;;;24.50;51.50;;;;;;7384447;19;20396;-46
2022/08/31 00:07:46;;;;;;;6.37;3.97;;;24.40;51.90;;;;;;7377704;19;20730;-46
2022/08/31 00:10:24;;;;;;;6.23;3.57;;;24.20;52.90;;;;;;7380846;19;20376;-46
2022/08/31 00:12:54;;;;;;;5.07;3.33;;;23.90;53.60;;;;;;7381377;19;20416;-47
2022/08/31 00:15:26;;;;;;;4.60;3.20;;;23.30;55.20;;;;;;7377391;19;20376;-46
2022/08/31 00:17:55;;;;;;;4.13;3.77;;;23.40;55.60;;;;;;7381939;19;20395;-46
2022/08/31 00:20:26;;;;;;;7.07;3.93;;;23.50;55.00;;;;;;7382677;19;20412;-46
2022/08/31 00:22:56;;;;;;;5.40;3.97;;;23.20;57.00;;;;;;7378531;19;20396;-46
2022/08/31 00:25:28;;;;;;;5.87;4.00;;;23.10;57.90;;;;;;7383021;19;20415;-46
2022/08/31 00:27:57;;;;;;;5.10;4.10;;;23.10;59.20;;;;;;7382459;19;20734;-46
2022/08/31 00:30:27;;;;;;;4.50;3.60;;;22.80;61.60;;;;;;7381211;19;20920;-46
2022/08/31 00:32:57;;;;;;;5.60;3.87;;;22.70;64.40;;;;;;7381175;19;20372;-46
2022/08/31 00:35:27;;;;;;;5.47;4.30;;;22.50;67.60;;;;;;7385323;19;20803;-45
2022/08/31 00:37:59;;;;;;;5.97;4.90;;;21.80;75.60;;;;;;7383645;19;20966;-46
2022/08/31 00:40:32;;;;;;;6.30;4.53;;;21.60;81.60;;;;;;7384324;19;20380;-46
2022/08/31 00:43:02;;;;;;;8.70;5.03;;;21.90;81.90;;;;;;7383682;19;20379;-46
2022/08/31 00:45:32;;;;;;;7.10;5.10;;;21.60;86.60;;;;;;7382501;19;20399;-46
2022/08/31 00:48:02;;;;;;;6.87;5.00;;;21.60;89.20;;;;;;7378188;19;20364;-46
2022/08/31 00:50:32;;;;;;;8.37;5.50;;;21.60;88.90;;;;;;7379921;19;20376;-46
2022/08/31 00:53:03;;;;;;;4.70;3.90;;;22.00;84.10;;;;;;7381142;19;20375;-46
2022/08/31 00:55:37;;;;;;;3.67;3.37;;;22.40;74.10;;;;;;7382489;19;20409;-46
2022/08/31 00:58:13;;;;;;;6.43;4.03;;;22.70;70.60;;;;;;7379235;19;20368;-46
2022/08/31 01:00:46;;;;;;;15.93;6.40;;;23.00;66.30;;;;;;7380872;19;20436;-46
2022/08/31 01:03:16;;;;;;;10.43;5.27;;;23.10;74.20;;;;;;7378515;19;20396;-46
2022/08/31 01:05:46;;;;;;;12.50;5.17;;;23.00;77.80;;;;;;7380217;19;20408;-46
2022/08/31 01:08:16;;;;;;;12.80;8.57;;;23.00;82.80;;;;;;7381460;19;20415;-46
2022/08/31 01:10:48;;;;;;;10.90;6.70;;;22.80;91.80;;;;;;7380919;19;20408;-46
2022/08/31 01:13:19;;;;;;;12.43;7.00;;;22.70;93.30;;;;;;7381376;19;20592;-46
2022/08/31 01:15:54;;;;;;;7.73;6.37;;;22.60;94.90;;;;;;7381771;19;22222;-46
2022/08/31 01:18:25;;;;;;;6.97;5.47;;;22.50;97.10;;;;;;7384378;19;20379;-46
2022/08/31 01:21:05;;;;;;;11.00;6.60;;;22.40;93.00;;;;;;7378347;19;20367;-46
2022/08/31 01:23:41;;;;;;;9.47;6.40;;;22.20;99.90;;;;;;7385373;19;20372;-46
2022/08/31 01:26:14;;;;;;;12.30;7.10;;;21.70;99.90;;;;;;7381304;19;20451;-45
2022/08/31 01:28:44;;;;;;;8.90;6.07;;;21.30;99.90;;;;;;7379854;19;20384;-46
2022/08/31 01:31:22;;;;;;;9.30;7.00;;;21.10;99.90;;;;;;7375796;19;20376;-46
2022/08/31 01:33:52;;;;;;;15.93;8.40;;;20.70;99.90;;;;;;7379531;19;20440;-46
2022/08/31 01:36:22;;;;;;;15.07;8.93;;;20.00;99.90;;;;;;7379264;19;20365;-46
2022/08/31 01:38:54;;;;;;;10.83;8.60;;;19.70;99.90;;;;;;7385732;19;20400;-46
2022/08/31 01:41:24;;;;;;;13.77;9.53;;;19.90;99.90;;;;;;7382398;19;20447;-45
2022/08/31 01:43:55;;;;;;;15.10;8.37;;;19.60;99.90;;;;;;7381512;19;20467;-46
2022/08/31 01:46:26;;;;;;;14.00;9.23;;;19.20;99.90;;;;;;7378336;19;20674;-45
2022/08/31 01:48:56;;;;;;;14.90;9.80;;;18.90;99.90;;;;;;7379839;19;20383;-45
2022/08/31 01:51:26;;;;;;;12.13;9.33;;;19.00;99.90;;;;;;7374104;19;20837;-46
2022/08/31 01:53:58;;;;;;;15.53;9.93;;;19.20;99.90;;;;;;7374617;19;20934;-46
2022/08/31 01:56:31;;;;;;;15.57;9.43;;;19.60;99.90;;;;;;7375054;19;20925;-45
2022/08/31 01:59:04;;;;;;;11.80;8.83;;;19.30;99.90;;;;;;7381355;19;20733;-46
2022/08/31 02:01:56;;;;;;;17.60;9.87;;;19.30;99.90;;;;;;7376003;19;21065;-46
2022/08/31 02:04:29;;;;;;;14.53;9.67;;;19.40;99.90;;;;;;7381013;19;20364;-46
2022/08/31 02:07:01;;;;;;;13.70;8.73;;;19.60;99.90;;;;;;7378335;19;20427;-46
2022/08/31 02:09:33;;;;;;;12.73;9.00;;;19.70;99.90;;;;;;7380718;19;20709;-46
2022/08/31 02:12:03;;;;;;;13.80;8.40;;;19.60;99.90;;;;;;7372176;19;20376;-45
2022/08/31 02:14:33;;;;;;;12.60;8.87;;;19.50;99.90;;;;;;7378265;19;20889;-46
2022/08/31 02:17:02;;;;;;;13.23;8.70;;;19.60;99.90;;;;;;7376192;19;20822;-46
2022/08/31 02:19:32;;;;;;;8.80;7.57;;;19.70;99.90;;;;;;7378507;19;20387;-46
2022/08/31 02:22:01;;;;;;;11.00;7.90;;;19.90;99.90;;;;;;7377904;19;20781;-46
2022/08/31 02:24:33;;;;;;;9.00;7.43;;;20.10;99.90;;;;;;7384187;19;20380;-46
2022/08/31 02:27:05;;;;;;;12.23;7.90;;;20.30;99.90;;;;;;7385261;19;20381;-46
2022/08/31 02:29:36;;;;;;;10.13;8.03;;;20.30;99.90;;;;;;7383971;19;20386;-46
2022/08/31 02:32:06;;;;;;;8.50;7.40;;;20.20;99.90;;;;;;7380651;19;20918;-45
2022/08/31 02:34:36;;;;;;;10.33;8.40;;;20.30;99.90;;;;;;7383854;19;20757;-46
2022/08/31 02:37:08;;;;;;;9.77;7.30;;;20.50;99.90;;;;;;7387508;19;20384;-46
2022/08/31 02:39:40;;;;;;;8.20;7.40;;;20.60;99.90;;;;;;7387477;19;20900;-46
2022/08/31 02:42:13;;;;;;;8.33;7.43;;;20.80;99.90;;;;;;7380597;19;20458;-46
2022/08/31 02:44:42;;;;;;;11.03;7.50;;;20.80;99.90;;;;;;7382451;19;20945;-46
2022/08/31 02:47:12;;;;;;;10.90;7.43;;;20.80;99.90;;;;;;7382824;19;20757;-46
2022/08/31 02:49:58;;;;;;;9.80;7.67;;;20.80;99.90;;;;;;7387347;19;20372;-46
2022/08/31 02:52:30;;;;;;;10.83;8.40;;;20.90;99.90;;;;;;7383426;19;20403;-46
2022/08/31 02:55:02;;;;;;;10.53;7.87;;;20.70;99.90;;;;;;7383660;19;20372;-46
2022/08/31 02:57:32;;;;;;;8.07;7.27;;;20.40;99.90;;;;;;7381847;19;20396;-46
2022/08/31 03:00:01;;;;;;;10.07;7.80;;;20.30;99.90;;;;;;7382192;19;20380;-47
2022/08/31 03:02:32;;;;;;;9.80;7.73;;;20.20;99.90;;;;;;7381784;19;20392;-47
2022/08/31 03:05:02;;;;;;;10.67;7.40;;;20.30;99.90;;;;;;7388090;19;20368;-47
2022/08/31 03:07:32;;;;;;;8.00;6.93;;;20.40;99.90;;;;;;7384215;19;20380;-46
2022/08/31 03:10:06;;;;;;;10.23;7.40;;;20.50;99.90;;;;;;7380229;19;20368;-47
2022/08/31 03:12:36;;;;;;;8.03;7.23;;;20.50;99.90;;;;;;7379435;19;20809;-46
2022/08/31 03:15:08;;;;;;;9.57;8.57;;;20.60;99.90;;;;;;7378334;19;20384;-47
2022/08/31 03:17:38;;;;;;;8.10;6.87;;;20.50;99.90;;;;;;7385451;19;20414;-47
2022/08/31 03:20:11;;;;;;;12.40;7.83;;;20.30;99.90;;;;;;7383013;19;20928;-47
2022/08/31 03:22:41;;;;;;;11.63;8.37;;;20.30;99.90;;;;;;7385321;19;20368;-46
2022/08/31 03:25:15;;;;;;;13.07;8.30;;;20.30;99.90;;;;;;7383401;19;20380;-47
2022/08/31 03:27:47;;;;;;;9.80;8.50;;;20.10;99.90;;;;;;7382121;19;20363;-47
2022/08/31 03:30:20;;;;;;;11.27;8.70;;;20.00;99.90;;;;;;7380291;19;20920;-46
2022/08/31 03:33:00;;;;;;;9.03;7.73;;;20.10;99.90;;;;;;7384900;19;20376;-48
2022/08/31 03:35:30;;;;;;;9.90;8.37;;;20.30;99.90;;;;;;7378267;19;20939;-46
2022/08/31 03:38:00;;;;;;;9.00;7.70;;;20.10;99.90;;;;;;7383420;19;20372;-46
2022/08/31 03:40:33;;;;;;;10.57;8.47;;;19.80;99.90;;;;;;7382744;19;20376;-45
2022/08/31 03:43:02;;;;;;;10.30;8.10;;;19.60;99.90;;;;;;7377463;19;20364;-45
2022/08/31 03:45:33;;;;;;;11.27;8.27;;;19.70;99.90;;;;;;7381429;19;20384;-45
2022/08/31 03:48:04;;;;;;;10.70;8.30;;;19.90;99.90;;;;;;7383904;19;20371;-45
2022/08/31 03:50:33;;;;;;;9.73;7.80;;;20.00;99.90;;;;;;7380076;19;20360;-45
2022/08/31 03:53:11;;;;;;;33.67;9.10;;;20.20;99.90;;;;;;7382316;19;20443;-46
2022/08/31 03:55:45;;;;;;;13.67;8.73;;;20.10;99.90;;;;;;7382545;19;20926;-45
2022/08/31 03:58:17;;;;;;;12.00;9.03;;;19.70;99.90;;;;;;7381755;19;20975;-45
2022/08/31 04:00:47;;;;;;;10.20;8.10;;;19.70;99.90;;;;;;7382324;19;20705;-46
2022/08/31 04:03:38;;;;;;;9.43;8.30;;;19.70;99.90;;;;;;7381964;19;20409;-46
2022/08/31 04:06:39;;;;;;;13.23;8.20;;;19.50;99.90;;;;;;7374499;19;20403;-46
2022/08/31 04:09:29;;;;;;;10.97;7.90;;;19.30;99.90;;;;;;7378983;19;20396;-46
2022/08/31 04:12:21;;;;;;;11.97;9.30;;;19.40;99.90;;;;;;7377093;19;20391;-47
2022/08/31 04:15:23;;;;;;;11.17;8.30;;;19.60;99.90;;;;;;7372641;19;20380;-46
2022/08/31 04:18:12;;;;;;;9.30;7.77;;;19.70;99.90;;;;;;7382799;19;20393;-46
2022/08/31 04:20:52;;;;;;;10.00;8.33;;;19.70;99.90;;;;;;7379586;19;20376;-46
2022/08/31 04:23:23;;;;;;;12.53;9.07;;;19.50;99.90;;;;;;7381408;19;20364;-46
2022/08/31 04:25:55;;;;;;;11.67;8.87;;;19.30;99.90;;;;;;7384045;19;20380;-46
2022/08/31 04:28:27;;;;;;;10.23;8.60;;;19.40;99.90;;;;;;7382118;19;20406;-46
2022/08/31 04:30:59;;;;;;;10.57;8.77;;;19.60;99.90;;;;;;7379406;19;20360;-47
2022/08/31 04:33:29;;;;;;;10.13;8.30;;;19.30;99.90;;;;;;7377575;19;21009;-49
2022/08/31 04:35:58;;;;;;;11.10;8.20;;;19.40;99.90;;;;;;7377215;19;20404;-47
2022/08/31 04:38:28;;;;;;;11.10;9.70;;;19.60;99.90;;;;;;7372980;19;20419;-47
2022/08/31 04:40:58;;;;;;;12.83;8.17;;;19.70;99.90;;;;;;7381816;19;20379;-47
2022/08/31 04:43:32;;;;;;;12.60;8.40;;;19.70;99.90;;;;;;7375924;19;20368;-47
2022/08/31 04:46:03;;;;;;;13.57;9.50;;;19.80;99.90;;;;;;7374266;19;20392;-47
2022/08/31 04:48:33;;;;;;;9.63;7.97;;;19.70;99.90;;;;;;7379602;19;20415;-47
2022/08/31 04:51:03;;;;;;;10.20;7.97;;;19.70;99.90;;;;;;7381321;19;20357;-47
2022/08/31 04:53:35;;;;;;;14.13;8.13;;;19.30;99.90;;;;;;7378922;19;20376;-47
2022/08/31 04:56:13;;;;;;;11.33;7.57;;;19.30;99.90;;;;;;7377128;19;20376;-47
2022/08/31 04:58:48;;;;;;;12.23;9.30;;;19.40;99.90;;;;;;7379077;19;20951;-47
2022/08/31 05:01:20;;;;;;;11.20;8.20;;;19.70;99.90;;;;;;7376776;19;20447;-47
2022/08/31 05:04:11;;;;;;;9.87;8.00;;;19.80;99.90;;;;;;7381289;19;20395;-47
2022/08/31 05:06:44;;;;;;;9.50;7.80;;;19.80;99.90;;;;;;7377784;19;20391;-47
2022/08/31 05:09:19;;;;;;;10.00;8.20;;;19.70;99.90;;;;;;7379414;19;20391;-47
2022/08/31 05:11:51;;;;;;;10.73;7.87;;;19.70;99.90;;;;;;7379306;19;20372;-48
2022/08/31 05:14:24;;;;;;;9.83;7.50;;;19.90;99.90;;;;;;7385355;19;20375;-48
2022/08/31 05:17:07;;;;;;;12.60;9.20;;;19.90;99.90;;;;;;7384483;19;20404;-47
2022/08/31 05:19:38;;;;;;;9.00;8.10;;;20.10;99.90;;;;;;7384027;19;20399;-47
2022/08/31 05:22:07;;;;;;;10.50;8.13;;;20.10;99.90;;;;;;7386318;19;20413;-47
2022/08/31 05:24:38;;;;;;;9.87;8.10;;;20.00;99.90;;;;;;7383093;19;20376;-47
2022/08/31 05:27:10;;;;;;;10.03;9.03;;;19.70;99.90;;;;;;7381081;19;20392;-47
2022/08/31 05:29:42;;;;;;;10.37;8.20;;;19.90;99.90;;;;;;7375097;19;20380;-46
2022/08/31 05:32:35;;;;;;;10.10;8.30;;;19.90;99.90;;;;;;7378528;19;20396;-46
2022/08/31 05:35:06;;;;;;;9.63;8.60;;;19.90;99.90;;;;;;7378077;19;20387;-46
2022/08/31 05:37:36;;;;;;;13.80;7.90;;;20.00;99.90;;;;;;7374897;19;20381;-46
2022/08/31 05:40:07;;;;;;;10.40;9.20;;;19.90;99.90;;;;;;7375566;19;20732;-46
2022/08/31 05:42:36;;;;;;;14.30;10.70;;;19.60;99.90;;;;;;7375636;19;21001;-47
2022/08/31 05:45:10;;;;;;;12.20;8.50;;;19.60;99.90;;;;;;7381703;19;20729;-47
2022/08/31 05:47:42;;;;;;;11.93;8.90;;;19.70;99.90;;;;;;7380485;19;20378;-47
2022/08/31 05:50:12;;;;;;;11.87;8.83;;;19.80;99.90;;;;;;7378349;19;21067;-47
2022/08/31 05:52:44;;;;;;;13.23;9.57;;;20.00;99.90;;;;;;7380222;19;20827;-47
2022/08/31 05:55:14;;;;;;;10.60;8.50;;;20.00;99.90;;;;;;7381197;19;20388;-47
2022/08/31 05:57:43;;;;;;;10.80;8.27;;;20.00;99.90;;;;;;7375029;19;20771;-47
2022/08/31 06:00:17;;;;;;;10.23;8.17;;;19.90;99.90;;;;;;7377892;19;20408;-47
2022/08/31 06:02:55;;;;;;;10.10;8.90;;;20.00;99.90;;;;;;7369958;19;20380;-47
2022/08/31 06:05:25;;;;;;;10.77;9.13;;;20.10;99.90;;;;;;7378454;19;20483;-47
2022/08/31 06:07:55;;;;;;;14.27;9.63;;;20.10;99.90;;;;;;7383407;19;21211;-47
2022/08/31 06:10:25;;;;;;;14.20;9.37;;;19.90;99.90;;;;;;7380410;19;20376;-47
2022/08/31 06:12:55;;;;;;;14.23;9.70;;;19.70;99.90;;;;;;7378274;19;20730;-47
2022/08/31 06:15:28;;;;;;;11.83;9.10;;;19.80;99.90;;;;;;7377677;19;20976;-48
2022/08/31 06:17:57;;;;;;;12.73;9.77;;;19.80;99.90;;;;;;7378522;19;20786;-47
2022/08/31 06:20:30;;;;;;;14.70;10.43;;;19.70;99.90;;;;;;7373375;19;20380;-47
2022/08/31 06:23:02;;;;;;;12.30;9.47;;;19.60;99.90;;;;;;7377325;19;20372;-47
2022/08/31 06:25:41;;;;;;;12.30;9.37;;;19.60;99.90;;;;;;7377459;19;20427;-47
2022/08/31 06:28:14;;;;;;;10.60;8.50;;;19.70;99.90;;;;;;7381819;19;20387;-47
2022/08/31 06:30:46;;;;;;;10.90;8.77;;;19.70;99.90;;;;;;7379924;19;20385;-47
2022/08/31 06:33:15;;;;;;;14.83;9.53;;;19.80;99.90;;;;;;7382997;19;20720;-46
2022/08/31 06:36:03;;;;;;;12.77;9.67;;;19.80;99.90;;;;;;7380434;19;20922;-47
2022/08/31 06:38:54;;;;;;;11.60;9.10;;;19.80;99.90;;;;;;7383359;19;21229;-47
2022/08/31 06:41:44;;;;;;;14.00;10.30;;;20.00;99.90;;;;;;7383875;19;20372;-47
2022/08/31 06:44:29;;;;;;;14.13;9.47;;;20.00;99.90;;;;;;7382185;19;20385;-47
2022/08/31 06:47:12;;;;;;;10.60;8.30;;;20.00;99.90;;;;;;7383437;19;20404;-47
2022/08/31 06:49:44;;;;;;;11.40;7.77;;;20.10;99.90;;;;;;7382402;19;20737;-47
2022/08/31 06:52:13;;;;;;;9.57;8.40;;;20.10;99.90;;;;;;7381106;19;20387;-46
2022/08/31 06:54:45;;;;;;;11.07;7.57;;;20.10;99.90;;;;;;7383339;19;20489;-46
2022/08/31 06:57:40;;;;;;;9.67;8.37;;;20.10;99.90;;;;;;7384002;19;20487;-46
2022/08/31 07:00:37;;;;;;;12.57;8.50;;;19.90;99.90;;;;;;7380975;19;20460;-47
2022/08/31 07:03:34;;;;;;;11.43;7.87;;;20.10;99.90;;;;;;7384596;19;20985;-47
2022/08/31 07:06:12;;;;;;;10.93;8.10;;;20.40;99.90;;;;;;7381085;19;20398;-47
2022/08/31 07:08:43;;;;;;;18.50;8.93;;;20.50;99.90;;;;;;7384113;19;20376;-47
2022/08/31 07:11:14;;;;;;;8.30;7.10;;;20.60;99.90;;;;;;7388774;19;21547;-47
2022/08/31 07:13:45;;;;;;;11.60;7.40;;;20.80;99.90;;;;;;7391547;19;20921;-47
2022/08/31 07:16:16;;;;;;;8.43;7.00;;;20.60;99.90;;;;;;7387546;19;20395;-47
2022/08/31 07:18:50;;;;;;;8.77;7.20;;;20.60;99.90;;;;;;7389175;19;20376;-47
2022/08/31 07:21:23;;;;;;;10.00;7.20;;;20.70;99.90;;;;;;7387675;19;20909;-47
2022/08/31 07:23:53;;;;;;;6.73;6.03;;;20.80;99.90;;;;;;7389021;19;20383;-47
2022/08/31 07:26:26;;;;;;;8.17;7.33;;;20.80;99.90;;;;;;7386873;19;20910;-47
2022/08/31 07:28:57;;;;;;;8.70;6.80;;;20.90;99.90;;;;;;7390175;19;20379;-47
2022/08/31 07:31:36;;;;;;;7.90;6.70;;;20.90;99.90;;;;;;7387854;19;20898;-47
2022/08/31 07:34:09;;;;;;;9.23;6.70;;;21.10;99.90;;;;;;7389502;19;20376;-47
2022/08/31 07:42:21;;;;;;;9.43;6.93;;;21.30;99.90;;;;;;7387634;19;20802;-47
2022/08/31 07:44:51;;;;;;;8.30;6.80;;;21.40;99.90;;;;;;7387961;19;21245;-47
2022/08/31 07:47:21;;;;;;;7.80;6.93;;;21.40;99.90;;;;;;7387292;19;20391;-47
2022/08/31 07:49:59;;;;;;;8.90;7.00;;;21.50;99.90;;;;;;7387899;19;20377;-47
2022/08/31 07:52:45;;;;;;;9.97;7.37;;;21.50;99.90;;;;;;7389877;19;20368;-47
2022/08/31 07:55:36;;;;;;;8.80;7.53;;;21.50;99.90;;;;;;7388244;19;20384;-47
2022/08/31 07:58:16;;;;;;;16.60;6.80;;;21.50;99.90;;;;;;7385431;19;20379;-47
2022/08/31 08:00:49;;;;;;;7.50;6.57;;;21.50;99.90;;;;;;7385200;19;20435;-47
2022/08/31 08:03:18;;;;;;;9.67;6.47;;;21.40;99.90;;;;;;7387502;19;20481;-47
2022/08/31 08:06:11;;;;;;;9.50;6.67;;;21.50;99.90;;;;;;7385575;19;20403;-47
2022/08/31 08:09:09;;;;;;;10.13;7.90;;;21.40;99.90;;;;;;7387884;19;20784;-47
2022/08/31 08:12:04;;;;;;;12.00;7.23;;;21.30;99.90;;;;;;7388603;19;20482;-47
2022/08/31 08:14:58;;;;;;;8.97;6.30;;;21.40;99.90;;;;;;7388188;19;21388;-48
2022/08/31 08:17:46;;;;;;;13.00;6.90;;;21.30;99.90;;;;;;7386795;19;20376;-47
2022/08/31 08:20:17;;;;;;;8.33;7.20;;;21.40;99.90;;;;;;7386129;19;20373;-47
2022/08/31 08:22:50;;;;;;;8.23;6.17;;;21.20;99.90;;;;;;7387511;19;20724;-47
2022/08/31 08:25:31;;;;;;;11.17;7.20;;;21.20;99.90;;;;;;7388885;19;20790;-47
2022/08/31 08:28:20;;;;;;;13.07;7.50;;;21.30;99.90;;;;;;7389423;19;20407;-47
2022/08/31 08:30:53;;;;;;;9.33;6.93;;;21.30;99.90;;;;;;7386997;19;20368;-47
2022/08/31 08:33:26;;;;;;;8.50;6.50;;;21.40;99.90;;;;;;7386714;19;21403;-47
2022/08/31 08:35:58;;;;;;;8.70;6.60;;;21.50;99.90;;;;;;7386292;19;20418;-47
2022/08/31 08:38:32;;;;;;;11.77;7.10;;;21.50;99.90;;;;;;7387150;19;20382;-47
2022/08/31 08:41:07;;;;;;;11.60;7.80;;;21.60;99.90;;;;;;7386373;19;20376;-47
2022/08/31 08:43:43;;;;;;;8.17;7.33;;;21.60;99.90;;;;;;7385836;19;20363;-47
2022/08/31 08:46:15;;;;;;;9.13;7.97;;;21.70;99.90;;;;;;7386510;19;20763;-48
2022/08/31 08:48:47;;;;;;;11.10;7.47;;;21.70;99.90;;;;;;7387167;19;20368;-47
2022/08/31 08:51:23;;;;;;;11.00;9.03;;;21.70;99.90;;;;;;7385828;19;20721;-47
2022/08/31 08:54:11;;;;;;;9.53;8.23;;;21.60;99.90;;;;;;7385497;19;20821;-47
2022/08/31 08:56:47;;;;;;;10.80;8.00;;;21.50;99.90;;;;;;7385024;19;20388;-47
2022/08/31 08:59:20;;;;;;;11.73;7.97;;;21.40;99.90;;;;;;7384301;19;20898;-47
2022/08/31 09:02:05;;;;;;;11.57;8.20;;;21.60;99.90;;;;;;7385224;19;20821;-47
2022/08/31 09:05:00;;;;;;;10.53;8.00;;;21.50;99.90;;;;;;7386236;19;20375;-47
2022/08/31 09:08:15;;;;;;;8.50;7.60;;;21.60;99.90;;;;;;7386922;19;20380;-47
2022/08/31 09:11:05;;;;;;;9.20;8.17;;;21.70;99.90;;;;;;7385649;19;20383;-47
2022/08/31 09:13:47;;;;;;;10.43;8.60;;;21.60;99.90;;;;;;7385893;19;20376;-47
2022/08/31 09:16:25;;;;;;;14.00;8.77;;;21.50;99.90;;;;;;7385032;19;20388;-47
2022/08/31 09:18:59;;;;;;;11.27;8.23;;;21.30;99.90;;;;;;7382389;19;20384;-48
2022/08/31 09:21:33;;;;;;;10.27;8.60;;;21.40;99.90;;;;;;7382385;19;20376;-47
2022/08/31 09:24:05;;;;;;;12.17;8.10;;;21.50;99.90;;;;;;7383942;19;20372;-48
2022/08/31 09:27:16;;;;;;;9.80;8.43;;;21.50;99.90;;;;;;7383661;19;20368;-47
2022/08/31 09:29:47;;;;;;;10.47;7.90;;;21.60;99.90;;;;;;7385722;19;20949;-48
2022/08/31 09:32:23;;;;;;;8.80;7.87;;;21.70;99.90;;;;;;7383485;19;20376;-47
2022/08/31 09:35:00;;;;;;;10.73;8.63;;;21.80;99.90;;;;;;7385509;19;20364;-48
2022/08/31 09:37:36;;;;;;;11.67;7.50;;;22.00;99.90;;;;;;7385454;19;20485;-47
2022/08/31 09:40:17;;;;;;;9.37;7.77;;;22.10;99.90;;;;;;7385969;19;20383;-47
2022/08/31 09:43:04;;;;;;;10.30;8.23;;;22.20;99.90;;;;;;7386687;19;20701;-47
2022/08/31 09:45:34;;;;;;;9.03;7.53;;;22.30;99.90;;;;;;7381008;19;20412;-47
2022/08/31 09:48:06;;;;;;;9.53;7.90;;;22.30;99.90;;;;;;7384941;19;20392;-47
2022/08/31 09:50:43;;;;;;;12.20;8.13;;;22.40;99.90;;;;;;7385724;19;20913;-47
2022/08/31 09:56:17;;;;;;;9.77;7.17;;;22.40;99.90;;;;;;7385682;19;20722;-47
2022/08/31 09:58:52;;;;;;;13.33;8.10;;;22.50;99.90;;;;;;7384898;19;20365;-47
2022/08/31 10:01:27;;;;;;;8.90;8.00;;;22.50;99.90;;;;;;7380493;19;20982;-47
2022/08/31 10:04:17;;;;;;;9.23;6.80;;;22.60;99.90;;;;;;7383789;19;20718;-47
2022/08/31 10:06:54;;;;;;;9.40;7.50;;;22.70;98.50;;;;;;7382880;19;20944;-47
2022/08/31 10:09:34;;;;;;;13.10;7.50;;;22.70;97.70;;;;;;7383986;19;20398;-47
2022/08/31 10:12:09;;;;;;;9.00;7.33;;;22.80;99.90;;;;;;7386360;19;20378;-47
2022/08/31 10:14:49;;;;;;;8.73;7.30;;;22.80;99.90;;;;;;7384256;19;20374;-47
2022/08/31 10:17:27;;;;;;;7.43;6.30;;;22.90;96.50;;;;;;7384974;19;20455;-47
2022/08/31 10:20:04;;;;;;;7.03;6.17;;;23.00;90.90;;;;;;7385219;19;20386;-47
2022/08/31 10:22:41;;;;;;;10.87;6.60;;;23.20;86.30;;;;;;7379052;19;20383;-47
2022/08/31 10:25:22;;;;;;;7.00;6.27;;;23.10;80.70;;;;;;7384107;19;20383;-47
2022/08/31 10:28:00;;;;;;;8.00;6.73;;;23.20;82.90;;;;;;7384018;19;20988;-47
2022/08/31 10:30:42;;;;;;;7.40;6.23;;;23.40;81.80;;;;;;7381034;19;21047;-47
2022/08/31 10:33:17;;;;;;;6.63;5.87;;;23.40;78.50;;;;;;7383595;19;20376;-47
2022/08/31 10:35:51;;;;;;;8.53;5.77;;;23.60;79.20;;;;;;7384291;19;20498;-47
2022/08/31 10:38:28;;;;;;;6.90;5.70;;;23.80;77.90;;;;;;7382052;19;20380;-47
2022/08/31 10:41:06;;;;;;;7.57;5.97;;;24.00;78.30;;;;;;7382863;19;20387;-47
2022/08/31 10:43:44;;;;;;;7.90;6.07;;;24.10;76.30;;;;;;7382901;19;20743;-47
2022/08/31 10:46:17;;;;;;;11.40;6.40;;;24.20;74.50;;;;;;7387813;19;20978;-47
2022/08/31 10:48:52;;;;;;;7.20;6.20;;;24.00;74.00;;;;;;7388819;19;20378;-47
2022/08/31 10:51:28;;;;;;;8.00;5.97;;;24.00;71.80;;;;;;7386087;19;20882;-48
2022/08/31 10:54:08;;;;;;;5.97;5.37;;;24.00;73.00;;;;;;7390025;19;21331;-48
2022/08/31 10:56:43;;;;;;;13.07;7.23;;;23.90;74.90;;;;;;7385496;19;20839;-48
2022/08/31 10:59:21;;;;;;;7.77;6.30;;;23.90;76.10;;;;;;7390610;19;20390;-48
2022/08/31 11:02:03;;;;;;;7.37;6.60;;;24.00;75.30;;;;;;7383997;19;21088;-48
2022/08/31 11:04:54;;;;;;;7.67;5.33;;;23.90;76.60;;;;;;7383630;19;20954;-48
2022/08/31 11:07:38;;;;;;;6.40;5.80;;;23.90;77.40;;;;;;7391584;19;20390;-48
2022/08/31 11:10:18;;;;;;;7.47;6.77;;;23.70;75.20;;;;;;7388683;19;20416;-48
2022/08/31 11:12:55;;;;;;;8.30;6.30;;;23.60;73.80;;;;;;7387450;19;20383;-48
2022/08/31 11:15:54;;;;;;;7.20;6.00;;;23.50;73.40;;;;;;7384214;19;20367;-48
2022/08/31 11:18:53;;;;;;;7.77;6.10;;;23.40;77.50;;;;;;7383180;19;20438;-48
2022/08/31 11:21:49;;;;;;;7.33;6.63;;;23.20;75.40;;;;;;7384766;19;20383;-48
2022/08/31 11:24:49;;;;;;;8.03;6.80;;;22.90;76.10;;;;;;7383763;19;20372;-48
2022/08/31 11:27:24;;;;;;;5.93;5.33;;;22.70;77.50;;;;;;7386723;19;20730;-48
2022/08/31 11:29:59;;;;;;;13.40;6.20;;;22.70;80.10;;;;;;7384013;19;20372;-48
2022/08/31 11:32:37;;;;;;;6.90;6.20;;;22.70;78.90;;;;;;7387652;19;20368;-48
2022/08/31 11:35:11;;;;;;;8.80;7.27;;;22.70;81.70;;;;;;7387282;19;20903;-48
2022/08/31 11:37:55;;;;;;;9.93;7.97;;;22.60;82.50;;;;;;7385148;19;20708;-47
2022/08/31 11:41:13;;;;;;;9.30;6.73;;;22.50;84.80;;;;;;7381586;19;20361;-48
2022/08/31 11:43:53;;;;;;;11.03;7.00;;;22.70;83.20;;;;;;7379608;19;20400;-47
2022/08/31 11:46:46;;;;;;;9.87;7.10;;;22.60;81.00;;;;;;7383796;19;20395;-47
2022/08/31 11:49:39;;;;;;;9.00;7.43;;;22.60;85.00;;;;;;7378591;19;20397;-48
2022/08/31 11:52:28;;;;;;;9.60;6.70;;;22.50;86.20;;;;;;7387786;19;20372;-55
2022/08/31 11:55:03;;;;;;;10.43;7.60;;;22.40;87.10;;;;;;7377656;19;20379;-56
2022/08/31 11:57:46;;;;;;;9.37;7.07;;;22.40;84.20;;;;;;7381235;19;20387;-55
2022/08/31 12:00:21;;;;;;;8.13;6.97;;;22.40;83.00;;;;;;7379492;19;20368;-56
2022/08/31 12:03:08;;;;;;;8.93;6.63;;;22.40;84.00;;;;;;7385493;19;20742;-56
2022/08/31 12:05:56;;;;;;;8.03;6.30;;;22.50;83.10;;;;;;7381186;19;20768;-56
2022/08/31 12:08:31;;;;;;;10.43;7.87;;;22.60;83.40;;;;;;7381038;19;20361;-56
2022/08/31 12:11:09;;;;;;;11.93;6.90;;;22.60;81.80;;;;;;7384054;19;20413;-56
2022/08/31 12:13:48;;;;;;;6.97;6.27;;;22.70;80.80;;;;;;7380336;19;20902;-55
2022/08/31 12:16:29;;;;;;;7.17;6.47;;;22.60;83.10;;;;;;7383995;19;20403;-56
2022/08/31 12:25:11;;;;;;;7.63;6.93;;;22.60;81.70;;;;;;7385603;19;20694;-47
2022/08/31 12:27:59;;;;;;;12.17;8.20;;;22.40;82.60;;;;;;7386500;19;20372;-47
2022/08/31 12:30:31;;;;;;;7.10;6.40;;;22.50;86.30;;;;;;7387835;19;21048;-47
2022/08/31 12:33:05;;;;;;;8.93;6.23;;;22.70;82.00;;;;;;7385721;19;20388;-47
2022/08/31 12:35:35;;;;;;;9.33;6.97;;;22.70;86.10;;;;;;7385833;19;20360;-48
2022/08/31 12:38:07;;;;;;;9.23;6.70;;;22.80;82.70;;;;;;7381746;19;20922;-48
2022/08/31 12:40:45;;;;;;;8.00;6.60;;;22.80;82.20;;;;;;7388990;19;20372;-47
2022/08/31 12:43:18;;;;;;;8.70;7.07;;;22.80;81.60;;;;;;7384320;19;20384;-48
2022/08/31 12:46:22;;;;;;;7.80;7.00;;;22.90;81.60;;;;;;7386911;19;20376;-47
2022/08/31 12:49:27;;;;;;;11.50;6.83;;;22.90;78.50;;;;;;7386620;19;20412;-47
2022/08/31 12:52:07;;;;;;;7.77;6.73;;;22.90;80.70;;;;;;7380740;19;20404;-56
2022/08/31 12:55:01;;;;;;;8.63;6.87;;;22.90;79.00;;;;;;7378390;19;20372;-56
2022/08/31 12:57:49;;;;;;;8.43;6.23;;;23.10;78.90;;;;;;7386373;19;20380;-56
2022/08/31 13:00:25;;;;;;;8.10;7.30;;;23.40;78.60;;;;;;7380892;19;20416;-56
2022/08/31 13:03:02;;;;;;;7.23;6.53;;;23.50;76.00;;;;;;7382673;19;20423;-55
2022/08/31 13:05:35;;;;;;;8.50;7.23;;;23.50;74.60;;;;;;7384538;19;20922;-56
2022/08/31 13:08:21;;;;;;;11.27;7.50;;;23.40;72.90;;;;;;7382476;19;21196;-55
2022/08/31 13:10:51;;;;;;;10.13;7.03;;;23.40;73.30;;;;;;7387026;19;20416;-56
2022/08/31 13:13:29;;;;;;;10.87;7.63;;;23.60;75.50;;;;;;7375575;19;20423;-56
2022/08/31 13:16:03;;;;;;;10.47;7.30;;;23.60;75.30;;;;;;7375899;19;20387;-56
2022/08/31 13:18:33;;;;;;;10.43;8.50;;;23.70;71.80;;;;;;7351402;19;20470;-56
2022/08/31 13:21:05;;;;;;;7.20;6.23;;;23.80;70.20;;;;;;7382227;19;20368;-48
2022/08/31 13:23:37;;;;;;;8.90;7.20;;;24.00;71.70;;;;;;7378306;19;20394;-48
2022/08/31 13:26:13;;;;;;;11.43;8.20;;;24.40;68.50;;;;;;7384153;19;20372;-48
2022/08/31 13:28:51;;;;;;;9.80;7.30;;;24.60;67.50;;;;;;7383990;19;20934;-48
2022/08/31 13:31:23;;;;;;;10.40;7.73;;;24.60;66.90;;;;;;7378700;19;21179;-48
2022/08/31 13:33:55;;;;;;;9.90;6.90;;;24.40;68.20;;;;;;7378504;19;20759;-48
2022/08/31 13:36:33;;;;;;;9.60;7.70;;;24.60;67.70;;;;;;7382976;19;20378;-48
2022/08/31 13:39:05;;;;;;;9.30;6.83;;;24.80;66.10;;;;;;7380825;19;21018;-48
2022/08/31 13:41:37;;;;;;;13.90;8.10;;;25.10;66.70;;;;;;7384835;19;20940;-48
2022/08/31 13:44:11;;;;;;;9.77;7.20;;;25.30;64.80;;;;;;7382158;19;20375;-48
2022/08/31 13:46:44;;;;;;;10.97;7.10;;;25.50;64.10;;;;;;7377229;19;20901;-48